Time;durP1;ratioP1;P1;durP2;ratioP2;P2;SDS_P1;SDS_P2;PMS_P1;PMS_P2;Temp;Humidity;BMP_temperature;BMP_pressure;BME280_temperature;BME280_humidity;BME280_pressure;Samples;Min_cycle;Max_cycle;Signal;HPM_P1;HPM_P2
2023/05/14 00:01:12;;;;;;;3.03;1.93;;;;;;;;;;5042935;27;88955;-55
2023/05/14 00:03:40;;;;;;;4.20;2.83;;;;;;;;;;5045909;27;87169;-55
2023/05/14 00:06:09;;;;;;;3.87;2.60;;;;;;;;;;5063659;27;86253;-55
2023/05/14 00:08:38;;;;;;;6.53;2.80;;;;;;;;;;5047305;27;89234;-55
2023/05/14 00:11:08;;;;;;;2.97;2.50;;;;;;;;;;5043036;27;88254;-55
2023/05/14 00:13:36;;;;;;;2.60;2.03;;;;;;;;;;5045158;27;87975;-55
2023/05/14 00:16:05;;;;;;;3.00;2.60;;;;;;;;;;5050628;27;88505;-55
2023/05/14 00:18:33;;;;;;;4.30;2.60;;;;;;;;;;5043449;27;89223;-54
2023/05/14 00:21:02;;;;;;;3.37;2.13;;;;;;;;;;5042708;27;88961;-55
2023/05/14 00:23:30;;;;;;;2.87;1.80;;;;;;;;;;5044631;27;87138;-55
2023/05/14 00:25:58;;;;;;;5.40;2.60;;;;;;;;;;5042005;28;87080;-54
2023/05/14 00:28:28;;;;;;;2.23;1.90;;;;;;;;;;5057348;27;88176;-54
2023/05/14 00:30:56;;;;;;;2.40;2.10;;;;;;;;;;5057293;27;88853;-54
2023/05/14 00:33:25;;;;;;;2.77;2.30;;;;;;;;;;5043030;27;86923;-54
2023/05/14 00:35:53;;;;;;;2.83;2.50;;;;;;;;;;5042760;27;86943;-55
2023/05/14 00:38:23;;;;;;;4.93;2.73;;;;;;;;;;5054177;27;89850;-55
2023/05/14 00:40:51;;;;;;;2.10;1.53;;;;;;;;;;5042903;27;88773;-54
2023/05/14 00:43:19;;;;;;;3.70;2.27;;;;;;;;;;5042714;27;87060;-55
2023/05/14 00:45:49;;;;;;;2.37;2.03;;;;;;;;;;5042155;27;87191;-54
2023/05/14 00:48:18;;;;;;;2.90;2.30;;;;;;;;;;5050203;27;88286;-53
2023/05/14 00:50:46;;;;;;;2.90;1.90;;;;;;;;;;5056777;27;88903;-55
2023/05/14 00:53:14;;;;;;;1.60;1.50;;;;;;;;;;5043951;27;89099;-55
2023/05/14 00:55:42;;;;;;;5.23;2.27;;;;;;;;;;5042815;27;86324;-55
2023/05/14 00:58:11;;;;;;;4.53;2.13;;;;;;;;;;5050838;27;88982;-55
2023/05/14 01:00:40;;;;;;;3.53;2.20;;;;;;;;;;5062085;27;88887;-54
2023/05/14 01:03:10;;;;;;;3.57;1.50;;;;;;;;;;5046793;27;88118;-54
2023/05/14 01:05:40;;;;;;;2.23;1.87;;;;;;;;;;5043052;27;87045;-54
2023/05/14 01:08:10;;;;;;;2.20;2.00;;;;;;;;;;5042230;27;89355;-55
2023/05/14 01:10:39;;;;;;;2.43;2.23;;;;;;;;;;5047758;27;88868;-55
2023/05/14 01:13:08;;;;;;;3.47;1.73;;;;;;;;;;5056290;27;86995;-55
2023/05/14 01:15:37;;;;;;;4.20;2.23;;;;;;;;;;5060134;27;87017;-55
2023/05/14 01:18:06;;;;;;;5.67;2.50;;;;;;;;;;5046397;27;89094;-54
2023/05/14 01:20:36;;;;;;;3.53;2.33;;;;;;;;;;5053415;27;88844;-53
2023/05/14 01:23:05;;;;;;;2.87;1.77;;;;;;;;;;5047126;27;86999;-55
2023/05/14 01:25:34;;;;;;;3.10;2.27;;;;;;;;;;5050366;27;87145;-54
2023/05/14 01:28:04;;;;;;;3.03;2.17;;;;;;;;;;5056133;27;90014;-55
2023/05/14 01:30:34;;;;;;;5.30;2.00;;;;;;;;;;5041808;27;89835;-54
2023/05/14 01:33:03;;;;;;;2.87;1.93;;;;;;;;;;5041951;27;87062;-54
2023/05/14 01:35:31;;;;;;;4.13;2.70;;;;;;;;;;5047618;27;86909;-55
2023/05/14 01:38:00;;;;;;;2.63;2.23;;;;;;;;;;5057969;27;89154;-54
2023/05/14 01:40:30;;;;;;;2.33;1.90;;;;;;;;;;5059847;27;88903;-54
2023/05/14 01:42:58;;;;;;;4.13;2.50;;;;;;;;;;5062102;27;87121;-55
2023/05/14 01:45:26;;;;;;;4.83;2.57;;;;;;;;;;5061347;27;86389;-55
2023/05/14 01:47:55;;;;;;;3.43;1.97;;;;;;;;;;5040898;28;89210;-55
2023/05/14 01:50:23;;;;;;;2.40;1.90;;;;;;;;;;5046397;27;87612;-55
2023/05/14 01:52:55;;;;;;;2.37;2.10;;;;;;;;;;5061329;27;87934;-55
2023/05/14 01:55:23;;;;;;;2.13;1.80;;;;;;;;;;5043304;27;87676;-55
2023/05/14 01:57:53;;;;;;;7.93;2.27;;;;;;;;;;5060781;27;89162;-55
2023/05/14 02:00:23;;;;;;;4.13;2.10;;;;;;;;;;5043730;27;87820;-55
2023/05/14 02:02:52;;;;;;;1.70;1.60;;;;;;;;;;5041636;27;87045;-55
2023/05/14 02:05:20;;;;;;;2.80;2.20;;;;;;;;;;5041634;27;87128;-55
2023/05/14 02:07:49;;;;;;;2.93;1.67;;;;;;;;;;5043455;27;88267;-55
2023/05/14 02:10:17;;;;;;;2.43;2.20;;;;;;;;;;5055572;27;88796;-55
2023/05/14 02:12:45;;;;;;;2.30;1.43;;;;;;;;;;5059651;27;87015;-55
2023/05/14 02:15:15;;;;;;;3.63;2.13;;;;;;;;;;5044550;27;87865;-55
2023/05/14 02:17:43;;;;;;;2.27;1.87;;;;;;;;;;5043548;27;90269;-55
2023/05/14 02:20:12;;;;;;;2.97;2.10;;;;;;;;;;5044687;27;89729;-55
2023/05/14 02:22:41;;;;;;;2.70;1.90;;;;;;;;;;5044376;27;87072;-55
2023/05/14 02:25:10;;;;;;;2.67;2.00;;;;;;;;;;5044824;27;87695;-55
2023/05/14 02:27:38;;;;;;;3.23;1.90;;;;;;;;;;5043987;27;89515;-55
2023/05/14 02:30:07;;;;;;;2.87;1.73;;;;;;;;;;5046162;27;88984;-55
2023/05/14 02:32:36;;;;;;;4.07;2.37;;;;;;;;;;5064100;27;86745;-55
2023/05/14 02:35:05;;;;;;;2.33;1.90;;;;;;;;;;5052244;27;86294;-55
2023/05/14 02:37:34;;;;;;;1.97;1.50;;;;;;;;;;5060065;27;89027;-55
2023/05/14 02:40:03;;;;;;;5.40;2.40;;;;;;;;;;5064611;27;87724;-55
2023/05/14 02:42:31;;;;;;;3.70;1.70;;;;;;;;;;5062198;27;87906;-55
2023/05/14 02:45:01;;;;;;;2.47;1.87;;;;;;;;;;5064226;27;86783;-55
2023/05/14 02:47:29;;;;;;;1.90;1.60;;;;;;;;;;5063481;27;89136;-55
2023/05/14 02:49:59;;;;;;;3.17;1.87;;;;;;;;;;5064243;27;87727;-54
2023/05/14 02:52:27;;;;;;;3.50;2.27;;;;;;;;;;5064054;27;87030;-55
2023/05/14 02:54:55;;;;;;;2.20;1.67;;;;;;;;;;5064147;27;86971;-55
2023/05/14 02:57:24;;;;;;;2.80;2.00;;;;;;;;;;5062840;27;89098;-55
2023/05/14 02:59:52;;;;;;;2.37;2.10;;;;;;;;;;5050514;27;87722;-55
2023/05/14 03:02:21;;;;;;;6.07;2.50;;;;;;;;;;5063535;27;86857;-55
2023/05/14 03:04:49;;;;;;;2.30;1.90;;;;;;;;;;5064026;27;88372;-55
2023/05/14 03:07:19;;;;;;;2.77;1.73;;;;;;;;;;5063397;27;90086;-55
2023/05/14 03:09:47;;;;;;;2.97;1.53;;;;;;;;;;5063677;27;89817;-54
2023/05/14 03:12:16;;;;;;;3.53;1.73;;;;;;;;;;5064185;27;87140;-55
2023/05/14 03:14:45;;;;;;;5.07;2.20;;;;;;;;;;5063844;27;87075;-55
2023/05/14 03:17:13;;;;;;;2.07;1.77;;;;;;;;;;5063354;27;89214;-55
2023/05/14 03:19:41;;;;;;;1.70;1.50;;;;;;;;;;5062868;27;87721;-55
2023/05/14 03:22:10;;;;;;;4.03;1.80;;;;;;;;;;5063744;27;86968;-54
2023/05/14 03:24:39;;;;;;;2.40;1.50;;;;;;;;;;5064066;27;86299;-55
2023/05/14 03:27:08;;;;;;;4.50;2.60;;;;;;;;;;5063492;27;89216;-55
2023/05/14 03:29:36;;;;;;;2.97;2.40;;;;;;;;;;5063028;27;89074;-55
2023/05/14 03:32:04;;;;;;;4.07;2.70;;;;;;;;;;5063213;27;88042;-55
2023/05/14 03:34:33;;;;;;;3.37;2.10;;;;;;;;;;5063178;27;87654;-55
2023/05/14 03:37:01;;;;;;;5.60;2.30;;;;;;;;;;5062764;27;88194;-55
2023/05/14 03:39:29;;;;;;;5.53;2.00;;;;;;;;;;5062912;27;89063;-55
2023/05/14 03:41:59;;;;;;;3.87;1.90;;;;;;;;;;5063250;27;87061;-55
2023/05/14 03:44:28;;;;;;;1.90;1.60;;;;;;;;;;5062388;27;86924;-53
2023/05/14 03:46:56;;;;;;;2.30;2.10;;;;;;;;;;5062242;27;89157;-55
2023/05/14 03:49:24;;;;;;;2.57;1.90;;;;;;;;;;5063798;27;88830;-55
2023/05/14 03:51:53;;;;;;;2.63;1.70;;;;;;;;;;5063956;27;87058;-56
2023/05/14 03:54:21;;;;;;;3.20;2.40;;;;;;;;;;5063620;27;87218;-55
2023/05/14 03:56:49;;;;;;;3.63;1.93;;;;;;;;;;5062245;27;89220;-56
2023/05/14 03:59:19;;;;;;;2.90;2.23;;;;;;;;;;5062322;27;88791;-55
2023/05/14 04:01:47;;;;;;;4.53;1.90;;;;;;;;;;5063384;27;87314;-55
2023/05/14 04:04:15;;;;;;;4.03;2.13;;;;;;;;;;5062926;27;87857;-55
2023/05/14 04:06:44;;;;;;;4.00;2.00;;;;;;;;;;5062762;27;89128;-55
2023/05/14 04:09:12;;;;;;;2.03;1.83;;;;;;;;;;5062358;27;89036;-55
2023/05/14 04:11:40;;;;;;;3.93;1.70;;;;;;;;;;5062996;27;87780;-55
2023/05/14 04:14:09;;;;;;;3.60;2.47;;;;;;;;;;5062874;27;86274;-56
2023/05/14 04:16:38;;;;;;;2.67;2.07;;;;;;;;;;5062139;27;89173;-54
2023/05/14 04:19:07;;;;;;;5.73;2.43;;;;;;;;;;5056764;27;89207;-55
2023/05/14 04:21:35;;;;;;;4.13;2.40;;;;;;;;;;5063003;27;88103;-55
2023/05/14 04:24:04;;;;;;;3.73;2.60;;;;;;;;;;5062781;27;86875;-55
2023/05/14 04:26:32;;;;;;;2.87;2.40;;;;;;;;;;5063003;27;89184;-55
2023/05/14 04:29:01;;;;;;;1.83;1.63;;;;;;;;;;5062483;27;88826;-54
2023/05/14 04:31:30;;;;;;;4.67;2.33;;;;;;;;;;5062209;27;86959;-55
2023/05/14 04:34:00;;;;;;;2.30;1.80;;;;;;;;;;5062123;27;87177;-56
2023/05/14 04:36:28;;;;;;;4.33;1.73;;;;;;;;;;5062529;27;88956;-55
2023/05/14 04:38:56;;;;;;;5.30;2.43;;;;;;;;;;5062621;27;88763;-55
2023/05/14 04:41:25;;;;;;;5.00;2.37;;;;;;;;;;5061172;27;86946;-55
2023/05/14 04:43:54;;;;;;;2.50;1.90;;;;;;;;;;5061993;27;87103;-55
2023/05/14 04:46:22;;;;;;;3.37;1.90;;;;;;;;;;5061215;27;90066;-55
2023/05/14 04:48:51;;;;;;;2.63;1.90;;;;;;;;;;5061146;27;88594;-55
2023/05/14 04:51:20;;;;;;;1.67;1.50;;;;;;;;;;5062899;27;86754;-55
2023/05/14 04:53:48;;;;;;;3.23;2.17;;;;;;;;;;5062716;27;86996;-54
2023/05/14 04:56:17;;;;;;;1.90;1.80;;;;;;;;;;5062585;27;89266;-54
2023/05/14 04:58:45;;;;;;;2.67;1.93;;;;;;;;;;5061132;27;87665;-55
2023/05/14 05:01:13;;;;;;;1.73;1.63;;;;;;;;;;5061818;27;87041;-55
2023/05/14 05:03:42;;;;;;;5.70;2.57;;;;;;;;;;5062457;27;86287;-55
2023/05/14 05:06:10;;;;;;;2.57;1.73;;;;;;;;;;5062184;27;89018;-55
2023/05/14 05:08:40;;;;;;;2.60;1.80;;;;;;;;;;5061578;27;88771;-55
2023/05/14 05:11:08;;;;;;;3.70;1.90;;;;;;;;;;5061681;27;87938;-55
2023/05/14 05:13:37;;;;;;;2.10;1.60;;;;;;;;;;5061134;27;87072;-55
2023/05/14 05:16:05;;;;;;;4.47;2.30;;;;;;;;;;5061531;27;87881;-55
2023/05/14 05:18:33;;;;;;;2.23;2.00;;;;;;;;;;5060705;27;87715;-55
2023/05/14 05:21:02;;;;;;;2.20;2.00;;;;;;;;;;5061179;27;87045;-55
2023/05/14 05:23:30;;;;;;;2.30;2.10;;;;;;;;;;5061080;27;87087;-55
2023/05/14 05:26:00;;;;;;;3.57;1.73;;;;;;;;;;5060594;27;89203;-55
2023/05/14 05:28:28;;;;;;;3.23;1.80;;;;;;;;;;5061874;27;87973;-55
2023/05/14 05:30:56;;;;;;;1.40;1.30;;;;;;;;;;5061435;27;86687;-54
2023/05/14 05:33:24;;;;;;;2.30;1.50;;;;;;;;;;5061615;27;87100;-56
2023/05/14 05:35:53;;;;;;;3.10;1.70;;;;;;;;;;5061657;27;90340;-56
2023/05/14 05:38:21;;;;;;;4.63;1.63;;;;;;;;;;5061824;27;89841;-55
2023/05/14 05:40:49;;;;;;;4.83;2.20;;;;;;;;;;5061984;27;87464;-55
2023/05/14 05:43:19;;;;;;;2.50;1.73;;;;;;;;;;5064926;27;87026;-56
2023/05/14 05:45:47;;;;;;;2.47;1.73;;;;;;;;;;5065014;27;88151;-55
2023/05/14 05:48:16;;;;;;;1.50;1.40;;;;;;;;;;5064057;27;87760;-54
2023/05/14 05:50:46;;;;;;;1.80;1.37;;;;;;;;;;5063971;27;87170;-55
2023/05/14 05:53:15;;;;;;;2.73;1.33;;;;;;;;;;5065010;27;86187;-55
2023/05/14 05:55:43;;;;;;;3.33;2.10;;;;;;;;;;5065138;27;87992;-55
2023/05/14 05:58:14;;;;;;;3.40;1.93;;;;;;;;;;5065162;27;87974;-56
2023/05/14 06:00:44;;;;;;;2.07;1.83;;;;;;;;;;5064406;27;87792;-55
2023/05/14 06:03:12;;;;;;;3.00;1.90;;;;;;;;;;5065182;27;86970;-54
2023/05/14 06:05:41;;;;;;;2.97;1.97;;;;;;;;;;5052944;27;89236;-56
2023/05/14 06:08:09;;;;;;;4.20;1.50;;;;;;;;;;5060619;27;88993;-55
2023/05/14 06:10:38;;;;;;;3.30;2.03;;;;;;;;;;5061128;27;86721;-56
2023/05/14 06:13:06;;;;;;;2.43;1.80;;;;;;;;;;5064876;27;88185;-56
2023/05/14 06:15:35;;;;;;;2.57;2.23;;;;;;;;;;5063397;27;89095;-56
2023/05/14 06:18:04;;;;;;;2.97;2.33;;;;;;;;;;5063949;27;88925;-55
2023/05/14 06:20:33;;;;;;;4.63;2.53;;;;;;;;;;5064580;27;87044;-55
2023/05/14 06:23:01;;;;;;;4.53;2.20;;;;;;;;;;5064932;27;86869;-55
2023/05/14 06:25:29;;;;;;;4.23;2.70;;;;;;;;;;5063952;27;90068;-56
2023/05/14 06:27:57;;;;;;;7.37;2.53;;;;;;;;;;5064126;27;89961;-55
2023/05/14 06:30:26;;;;;;;3.10;2.53;;;;;;;;;;5064247;27;87038;-55
2023/05/14 06:32:54;;;;;;;4.10;2.17;;;;;;;;;;5064780;27;86952;-56
2023/05/14 06:35:24;;;;;;;5.70;2.30;;;;;;;;;;5064504;27;89191;-56
2023/05/14 06:37:52;;;;;;;5.67;2.67;;;;;;;;;;5064363;27;88688;-56
2023/05/14 06:40:21;;;;;;;4.33;3.00;;;;;;;;;;5064830;27;86993;-55
2023/05/14 06:42:50;;;;;;;6.77;2.73;;;;;;;;;;5064027;27;86186;-55
2023/05/14 06:45:18;;;;;;;5.20;2.67;;;;;;;;;;5064064;27;88041;-55
2023/05/14 06:47:46;;;;;;;3.70;2.00;;;;;;;;;;5063775;27;88944;-56
2023/05/14 06:50:15;;;;;;;7.73;3.20;;;;;;;;;;5064388;27;87702;-56
2023/05/14 06:52:45;;;;;;;3.77;2.67;;;;;;;;;;5064444;27;86935;-55
2023/05/14 06:55:13;;;;;;;4.17;2.87;;;;;;;;;;5064074;27;89098;-56
2023/05/14 06:57:41;;;;;;;6.03;3.17;;;;;;;;;;5064092;27;88844;-55
2023/05/14 07:00:10;;;;;;;4.20;3.40;;;;;;;;;;5064134;27;86831;-56
2023/05/14 07:02:39;;;;;;;3.60;2.40;;;;;;;;;;5064011;27;86921;-55
2023/05/14 07:05:08;;;;;;;3.93;2.77;;;;;;;;;;5064049;27;89092;-55
2023/05/14 07:07:36;;;;;;;3.43;2.00;;;;;;;;;;5064491;27;87938;-56
2023/05/14 07:10:07;;;;;;;4.83;3.00;;;;;;;;;;5064204;27;86931;-56
2023/05/14 07:12:35;;;;;;;2.83;2.57;;;;;;;;;;5063950;27;87545;-55
2023/05/14 07:15:03;;;;;;;3.50;2.47;;;;;;;;;;5063015;27;88692;-55
2023/05/14 07:17:32;;;;;;;3.80;2.10;;;;;;;;;;5063513;27;89856;-55
2023/05/14 07:20:00;;;;;;;3.07;2.10;;;;;;;;;;5063720;27;87097;-56
2023/05/14 07:22:28;;;;;;;4.53;2.43;;;;;;;;;;5063807;27;86988;-55
2023/05/14 07:24:56;;;;;;;2.60;2.10;;;;;;;;;;5063992;27;88155;-55
2023/05/14 07:27:26;;;;;;;4.77;2.87;;;;;;;;;;5063903;27;88809;-56
2023/05/14 07:29:54;;;;;;;3.30;2.43;;;;;;;;;;5063869;27;87093;-56
2023/05/14 07:32:23;;;;;;;3.60;2.43;;;;;;;;;;5064047;27;86273;-56
2023/05/14 07:34:52;;;;;;;4.63;3.33;;;;;;;;;;5063693;27;89389;-55
2023/05/14 07:37:21;;;;;;;5.63;2.43;;;;;;;;;;5063640;27;87817;-56
2023/05/14 07:39:51;;;;;;;4.37;2.20;;;;;;;;;;5063590;27;87955;-56
2023/05/14 07:42:19;;;;;;;5.13;2.70;;;;;;;;;;5063475;27;87050;-55
2023/05/14 07:45:04;;;;;;;3.97;2.67;;;;;;;;;;5063327;27;89027;-56
2023/05/14 07:47:32;;;;;;;2.70;2.20;;;;;;;;;;5062790;27;87763;-56
2023/05/14 07:50:01;;;;;;;3.97;2.83;;;;;;;;;;5063584;27;87080;-56
2023/05/14 07:52:29;;;;;;;2.87;1.90;;;;;;;;;;5063778;27;86985;-55
2023/05/14 07:54:58;;;;;;;3.77;2.70;;;;;;;;;;5063016;27;88274;-56
2023/05/14 07:57:27;;;;;;;4.43;2.73;;;;;;;;;;5063755;27;87821;-56
2023/05/14 07:59:55;;;;;;;2.80;2.20;;;;;;;;;;5063161;27;87023;-55
2023/05/14 08:02:25;;;;;;;2.70;2.17;;;;;;;;;;5063463;27;86907;-55
2023/05/14 08:04:54;;;;;;;4.37;2.27;;;;;;;;;;5061886;27;89729;-56
2023/05/14 08:07:22;;;;;;;3.37;2.03;;;;;;;;;;5063458;27;89846;-55
2023/05/14 08:09:50;;;;;;;4.37;2.20;;;;;;;;;;5063208;27;87815;-55
2023/05/14 08:12:19;;;;;;;1.67;1.57;;;;;;;;;;5063327;27;87049;-56
2023/05/14 08:14:47;;;;;;;2.90;1.90;;;;;;;;;;5063315;27;88121;-55
2023/05/14 08:17:16;;;;;;;5.63;2.03;;;;;;;;;;5062892;27;88896;-55
2023/05/14 08:19:46;;;;;;;3.97;2.07;;;;;;;;;;5063347;27;86963;-55
2023/05/14 08:22:15;;;;;;;3.27;1.50;;;;;;;;;;5063192;27;86248;-55
2023/05/14 08:24:43;;;;;;;2.80;2.10;;;;;;;;;;5062754;27;89276;-55
2023/05/14 08:27:11;;;;;;;2.80;1.63;;;;;;;;;;5062912;27;88942;-55
2023/05/14 08:29:40;;;;;;;2.07;1.23;;;;;;;;;;5061792;27;87945;-56
2023/05/14 08:32:09;;;;;;;1.43;1.33;;;;;;;;;;5063232;27;87007;-56
2023/05/14 08:34:51;;;;;;;2.00;1.57;;;;;;;;;;5062927;27;89102;-56
2023/05/14 08:37:19;;;;;;;4.03;1.80;;;;;;;;;;5062580;27;88825;-56
2023/05/14 08:39:48;;;;;;;2.10;1.80;;;;;;;;;;5062710;27;86927;-55
2023/05/14 08:42:16;;;;;;;2.63;1.50;;;;;;;;;;5062975;27;86976;-56
2023/05/14 08:44:46;;;;;;;2.03;1.57;;;;;;;;;;5062459;27;88996;-56
2023/05/14 08:47:14;;;;;;;2.73;1.40;;;;;;;;;;5062901;27;88725;-55
2023/05/14 08:49:43;;;;;;;3.10;1.60;;;;;;;;;;5062995;27;87027;-55
2023/05/14 08:52:13;;;;;;;3.27;1.27;;;;;;;;;;5062407;27;87039;-55
2023/05/14 08:54:41;;;;;;;2.23;2.00;;;;;;;;;;5061857;27;90133;-56
2023/05/14 08:57:10;;;;;;;1.77;1.67;;;;;;;;;;5062724;27;89714;-56
2023/05/14 08:59:38;;;;;;;1.53;1.43;;;;;;;;;;5062325;27;86913;-55
2023/05/14 09:02:07;;;;;;;3.17;1.90;;;;;;;;;;5061954;27;87162;-55
2023/05/14 09:04:35;;;;;;;2.37;1.57;;;;;;;;;;5062340;27;89029;-55
2023/05/14 09:07:05;;;;;;;2.07;1.33;;;;;;;;;;5062487;27;88888;-55
2023/05/14 09:09:35;;;;;;;2.00;1.50;;;;;;;;;;5062541;27;87051;-55
2023/05/14 09:12:04;;;;;;;1.67;1.50;;;;;;;;;;5063182;27;86266;-56
2023/05/14 09:14:33;;;;;;;6.03;1.77;;;;;;;;;;5062258;27;89325;-56
2023/05/14 09:17:01;;;;;;;1.80;1.27;;;;;;;;;;5063376;27;87064;-56
2023/05/14 09:19:29;;;;;;;1.50;1.23;;;;;;;;;;5064970;27;88026;-55
2023/05/14 09:21:58;;;;;;;2.93;1.50;;;;;;;;;;5065674;27;87047;-55
2023/05/14 09:24:27;;;;;;;1.73;0.90;;;;;;;;;;5065659;27;89383;-55
2023/05/14 09:26:58;;;;;;;2.73;1.73;;;;;;;;;;5066216;27;87135;-56
2023/05/14 09:29:26;;;;;;;3.33;1.70;;;;;;;;;;5065699;27;87036;-56
2023/05/14 09:31:55;;;;;;;1.77;1.20;;;;;;;;;;5065153;27;86987;-56
2023/05/14 09:34:24;;;;;;;2.20;2.00;;;;;;;;;;5065641;27;89144;-55
2023/05/14 09:36:55;;;;;;;1.07;1.07;;;;;;;;;;5065828;27;87798;-56
2023/05/14 09:39:23;;;;;;;1.60;1.30;;;;;;;;;;5065847;27;87008;-56
2023/05/14 09:41:52;;;;;;;1.47;1.20;;;;;;;;;;5064751;27;87069;-56
2023/05/14 09:44:21;;;;;;;3.67;1.20;;;;;;;;;;5063664;27;89885;-55
2023/05/14 09:46:50;;;;;;;1.87;1.73;;;;;;;;;;5064933;27;89778;-55
2023/05/14 09:49:18;;;;;;;4.73;1.67;;;;;;;;;;5064623;27;88047;-56
2023/05/14 09:51:47;;;;;;;1.83;1.40;;;;;;;;;;5064426;27;87050;-55
2023/05/14 09:54:15;;;;;;;65.27;31.07;;;;;;;;;;5065035;27;89235;-55
2023/05/14 09:56:43;;;;;;;82.47;46.13;;;;;;;;;;5063967;27;88963;-56
2023/05/14 09:59:12;;;;;;;308.77;151.50;;;;;;;;;;5064830;27;87061;-57
2023/05/14 10:01:41;;;;;;;230.10;126.40;;;;;;;;;;5064422;27;86181;-56
2023/05/14 10:04:10;;;;;;;138.93;81.00;;;;;;;;;;5059158;27;89116;-56
2023/05/14 10:06:40;;;;;;;119.97;66.27;;;;;;;;;;5061314;27;87855;-57
2023/05/14 10:09:11;;;;;;;100.97;58.13;;;;;;;;;;5063608;27;87949;-56
2023/05/14 10:11:39;;;;;;;87.10;50.50;;;;;;;;;;5062851;27;86976;-56
2023/05/14 10:14:08;;;;;;;76.90;44.53;;;;;;;;;;5059319;27;89120;-55
2023/05/14 10:16:37;;;;;;;89.17;45.10;;;;;;;;;;5063489;27;88879;-55
2023/05/14 10:19:08;;;;;;;73.80;40.83;;;;;;;;;;5063621;27;88088;-55
2023/05/14 10:21:37;;;;;;;59.43;34.83;;;;;;;;;;5062825;27;86988;-56
2023/05/14 10:24:06;;;;;;;60.40;33.80;;;;;;;;;;5063470;27;88031;-56
2023/05/14 10:26:37;;;;;;;40.83;26.10;;;;;;;;;;5063320;27;88922;-55
2023/05/14 10:29:05;;;;;;;46.73;25.33;;;;;;;;;;5062589;27;87012;-57
2023/05/14 10:31:46;;;;;;;36.93;23.10;;;;;;;;;;5058858;27;87113;-55
2023/05/14 10:34:37;;;;;;;35.80;20.37;;;;;;;;;;5062844;27;90075;-54
2023/05/14 10:37:05;;;;;;;42.23;23.73;;;;;;;;;;5061380;27;89826;-54
2023/05/14 10:39:43;;;;;;;115.03;54.70;;;;;;;;;;5060958;27;86983;-56
2023/05/14 10:42:12;;;;;;;114.37;60.63;;;;;;;;;;5063461;27;87124;-56
2023/05/14 10:44:42;;;;;;;87.53;46.13;;;;;;;;;;5062598;27;89179;-56
2023/05/14 10:47:10;;;;;;;64.30;36.90;;;;;;;;;;5063744;27;87770;-56
2023/05/14 10:49:40;;;;;;;65.37;32.90;;;;;;;;;;5063895;27;87418;-56
2023/05/14 10:52:11;;;;;;;62.13;34.73;;;;;;;;;;5064379;27;86346;-56
2023/05/14 10:54:39;;;;;;;63.33;29.87;;;;;;;;;;5062826;27;88131;-56
2023/05/14 10:57:10;;;;;;;58.90;27.17;;;;;;;;;;5063572;27;88983;-56
2023/05/14 10:59:41;;;;;;;47.83;24.57;;;;;;;;;;5063386;27;88030;-56
2023/05/14 11:02:19;;;;;;;37.50;19.77;;;;;;;;;;5063479;27;87083;-56
2023/05/14 11:04:54;;;;;;;31.13;20.17;;;;;;;;;;5063365;27;89111;-56
2023/05/14 11:07:24;;;;;;;27.60;16.57;;;;;;;;;;5063474;27;88848;-56
2023/05/14 11:09:52;;;;;;;30.60;15.70;;;;;;;;;;5063188;27;86984;-56
2023/05/14 11:12:20;;;;;;;24.37;15.73;;;;;;;;;;5063664;27;86876;-56
2023/05/14 11:14:48;;;;;;;20.90;12.43;;;;;;;;;;5058605;27;89128;-56
2023/05/14 11:17:17;;;;;;;26.47;13.87;;;;;;;;;;5058493;27;89111;-56
2023/05/14 11:19:45;;;;;;;23.10;13.13;;;;;;;;;;5063169;27;86811;-56
2023/05/14 11:22:16;;;;;;;28.30;13.00;;;;;;;;;;5062776;27;87016;-56
2023/05/14 11:24:44;;;;;;;25.40;12.77;;;;;;;;;;5062649;27;89945;-56
2023/05/14 11:27:13;;;;;;;24.63;12.30;;;;;;;;;;5063153;27;90159;-56
2023/05/14 11:29:43;;;;;;;25.47;12.80;;;;;;;;;;5062746;27;87130;-57
2023/05/14 11:32:12;;;;;;;19.83;10.37;;;;;;;;;;5055265;27;87116;-57
2023/05/14 11:34:40;;;;;;;18.60;9.83;;;;;;;;;;5059966;27;88982;-57
2023/05/14 11:37:08;;;;;;;21.00;10.77;;;;;;;;;;5045928;27;87900;-56
2023/05/14 11:39:38;;;;;;;13.63;8.23;;;;;;;;;;5041219;27;87164;-56
2023/05/14 11:42:11;;;;;;;12.30;6.90;;;;;;;;;;5043198;28;86391;-56
2023/05/14 11:44:39;;;;;;;18.37;8.30;;;;;;;;;;5042159;27;89128;-57
2023/05/14 11:47:07;;;;;;;13.00;7.57;;;;;;;;;;5042562;27;87470;-56
2023/05/14 11:49:36;;;;;;;18.30;7.73;;;;;;;;;;5042526;27;87937;-56
2023/05/14 11:52:05;;;;;;;14.07;8.03;;;;;;;;;;5043252;27;87101;-56
2023/05/14 11:54:34;;;;;;;15.93;7.03;;;;;;;;;;5043096;27;89059;-57
2023/05/14 11:57:04;;;;;;;10.77;6.90;;;;;;;;;;5043235;28;88914;-56
2023/05/14 11:59:32;;;;;;;11.53;6.80;;;;;;;;;;5042833;27;86949;-56
2023/05/14 12:02:02;;;;;;;9.70;5.87;;;;;;;;;;5043022;27;87029;-57
2023/05/14 12:04:30;;;;;;;9.50;5.87;;;;;;;;;;5042539;27;88977;-56
2023/05/14 12:06:59;;;;;;;9.17;5.03;;;;;;;;;;5043461;27;88849;-55
2023/05/14 12:09:27;;;;;;;10.23;5.00;;;;;;;;;;5042609;28;87054;-57
2023/05/14 12:11:55;;;;;;;8.83;5.50;;;;;;;;;;5042571;27;86906;-56
2023/05/14 12:14:25;;;;;;;9.20;5.20;;;;;;;;;;5041751;27;90363;-56
2023/05/14 12:16:54;;;;;;;9.17;4.83;;;;;;;;;;5042594;27;88869;-56
2023/05/14 12:19:24;;;;;;;9.87;4.37;;;;;;;;;;5042961;28;86968;-56
2023/05/14 12:21:52;;;;;;;8.87;4.50;;;;;;;;;;5042481;27;86991;-57
2023/05/14 12:24:21;;;;;;;5.77;4.50;;;;;;;;;;5042469;28;89221;-56
2023/05/14 12:26:49;;;;;;;7.10;3.97;;;;;;;;;;5042458;28;88883;-57
2023/05/14 12:29:18;;;;;;;7.07;4.33;;;;;;;;;;5042374;28;86934;-56
2023/05/14 12:31:48;;;;;;;6.27;3.97;;;;;;;;;;5042972;28;86901;-56
2023/05/14 12:34:16;;;;;;;7.80;4.20;;;;;;;;;;5042314;28;89083;-56
2023/05/14 12:36:44;;;;;;;6.93;3.30;;;;;;;;;;5042588;28;88880;-56
2023/05/14 12:39:13;;;;;;;5.60;3.33;;;;;;;;;;5042213;27;87955;-56
2023/05/14 12:41:41;;;;;;;6.37;2.93;;;;;;;;;;5042628;28;86927;-57
2023/05/14 12:44:09;;;;;;;5.80;4.07;;;;;;;;;;5042479;28;89222;-57
2023/05/14 12:46:38;;;;;;;4.27;2.87;;;;;;;;;;5041300;27;87941;-56
2023/05/14 12:49:08;;;;;;;4.07;3.00;;;;;;;;;;5041779;27;87026;-55
2023/05/14 12:51:36;;;;;;;9.87;3.33;;;;;;;;;;5042083;27;87087;-56
2023/05/14 12:54:04;;;;;;;6.50;2.57;;;;;;;;;;5041798;28;89112;-56
2023/05/14 12:56:33;;;;;;;6.57;2.77;;;;;;;;;;5041854;27;88735;-56
2023/05/14 12:59:01;;;;;;;4.33;2.53;;;;;;;;;;5041925;28;87132;-57
2023/05/14 13:01:29;;;;;;;2.40;2.00;;;;;;;;;;5041647;28;87108;-56
2023/05/14 13:03:58;;;;;;;8.77;2.90;;;;;;;;;;5041427;27;90259;-56
2023/05/14 13:06:28;;;;;;;5.30;2.70;;;;;;;;;;5041225;27;88829;-56
2023/05/14 13:08:58;;;;;;;3.50;2.20;;;;;;;;;;5041912;27;86930;-56
2023/05/14 13:11:29;;;;;;;3.40;2.33;;;;;;;;;;5041553;27;87000;-56
2023/05/14 13:13:57;;;;;;;3.93;2.13;;;;;;;;;;5041490;27;87743;-56
2023/05/14 13:16:26;;;;;;;3.70;2.50;;;;;;;;;;5041314;27;87077;-55
2023/05/14 13:18:54;;;;;;;4.13;2.43;;;;;;;;;;5041529;27;87127;-56
2023/05/14 13:21:22;;;;;;;6.20;2.13;;;;;;;;;;5042165;27;86547;-57
2023/05/14 13:23:52;;;;;;;2.77;2.27;;;;;;;;;;5041596;27;89016;-56
2023/05/14 13:26:21;;;;;;;4.00;1.97;;;;;;;;;;5041579;27;88884;-57
2023/05/14 13:28:49;;;;;;;3.80;1.70;;;;;;;;;;5041226;27;87892;-56
2023/05/14 13:31:18;;;;;;;3.90;2.07;;;;;;;;;;5041200;27;86883;-56
2023/05/14 13:33:46;;;;;;;2.17;1.73;;;;;;;;;;5040770;27;89145;-56
2023/05/14 13:36:15;;;;;;;6.10;2.33;;;;;;;;;;5041175;28;88972;-56
2023/05/14 13:38:44;;;;;;;2.60;1.53;;;;;;;;;;5041680;28;86871;-56
2023/05/14 13:41:14;;;;;;;2.53;2.00;;;;;;;;;;5041243;28;87061;-56
2023/05/14 13:43:42;;;;;;;4.10;2.37;;;;;;;;;;5041205;27;89220;-56
2023/05/14 13:46:11;;;;;;;2.70;2.10;;;;;;;;;;5041307;27;87657;-56
2023/05/14 13:48:39;;;;;;;5.40;2.07;;;;;;;;;;5041276;28;86944;-56
2023/05/14 13:51:07;;;;;;;2.57;1.90;;;;;;;;;;5041451;27;87015;-56
2023/05/14 13:53:36;;;;;;;3.37;1.80;;;;;;;;;;5040438;28;90202;-56
2023/05/14 13:56:05;;;;;;;2.00;1.80;;;;;;;;;;5040723;27;89987;-56
2023/05/14 13:58:34;;;;;;;4.80;1.80;;;;;;;;;;5041105;27;86957;-55
2023/05/14 14:01:03;;;;;;;2.90;2.20;;;;;;;;;;5041195;27;86878;-55
2023/05/14 14:03:31;;;;;;;2.63;1.67;;;;;;;;;;5043172;27;88913;-56
2023/05/14 14:05:59;;;;;;;2.07;1.70;;;;;;;;;;5044773;27;88687;-56
2023/05/14 14:08:28;;;;;;;3.50;1.93;;;;;;;;;;5045262;28;87049;-56
2023/05/14 14:10:56;;;;;;;2.10;1.87;;;;;;;;;;5045191;27;86190;-56
2023/05/14 14:13:24;;;;;;;4.00;2.03;;;;;;;;;;5044173;27;87104;-56
2023/05/14 14:15:54;;;;;;;3.77;1.80;;;;;;;;;;5044288;27;88835;-56
2023/05/14 14:18:22;;;;;;;1.93;1.67;;;;;;;;;;5044164;27;88020;-56
2023/05/14 14:20:51;;;;;;;1.90;1.70;;;;;;;;;;5044396;27;86954;-54
2023/05/14 14:23:20;;;;;;;1.63;1.53;;;;;;;;;;5044593;28;89190;-56
2023/05/14 14:25:48;;;;;;;2.07;1.90;;;;;;;;;;5044392;28;88872;-56
2023/05/14 14:28:17;;;;;;;2.97;1.53;;;;;;;;;;5044780;27;86920;-56
2023/05/14 14:30:46;;;;;;;3.30;1.87;;;;;;;;;;5044313;28;87084;-56
2023/05/14 14:33:15;;;;;;;3.30;1.57;;;;;;;;;;5044212;27;89146;-57
2023/05/14 14:35:44;;;;;;;1.53;1.40;;;;;;;;;;5044852;27;86533;-57
2023/05/14 14:38:12;;;;;;;1.90;1.67;;;;;;;;;;5044709;27;87081;-57
2023/05/14 14:40:40;;;;;;;2.87;1.80;;;;;;;;;;5044397;28;86966;-56
2023/05/14 14:43:09;;;;;;;2.33;1.30;;;;;;;;;;5043628;27;90300;-56
2023/05/14 14:45:37;;;;;;;1.77;1.57;;;;;;;;;;5043773;27;90087;-56
2023/05/14 14:48:24;;;;;;;3.03;1.43;;;;;;;;;;5044358;27;86906;-56